Jiaoxian, China
Current Conditions -  °F | °C
As of 3:00 PM on Friday 31 Oct 2014 (Local Time) from ZSQD Reporting Station
Broken Clouds Broken Clouds  
Wind Chill: 63°   Ceiling: 3000
Heat Index: 63°   Visibility: 6mi
Dew Point: 57°   Wind: 13mph
Humidity: 82%   Direction: 40°NE
Pressure: 30"   Gusts: NA
Location:  36.28°N, 120°E
Report Text: ZSQD 310700Z 04006MPS 010V070 9999 BKN030 17/14 Q1016 NOSIG
Loading
Personal Weather Stations






























Interactive Weather Map New forecast layout! Learn more

10-Day Weather Forecast

Advertisements
Track Severe Weather on mobile